createdAt,value
2023-02-06T00:01:46.502Z,79.71
2023-02-06T00:04:13.310Z,79.84
2023-02-06T00:06:39.747Z,79.67
2023-02-06T00:09:06.868Z,79.72
2023-02-06T00:11:33.748Z,79.81
2023-02-06T00:14:00.163Z,78.78
2023-02-06T00:16:27.841Z,78.86
2023-02-06T00:18:54.896Z,79.58
2023-02-06T00:21:22.063Z,78.94
2023-02-06T00:23:49.205Z,78.94
2023-02-06T00:26:15.664Z,79.02
2023-02-06T00:28:42.104Z,79.22
2023-02-06T00:31:09.080Z,78.46
2023-02-06T00:33:35.739Z,79.91
2023-02-06T00:36:02.481Z,80.00
2023-02-06T00:38:29.096Z,79.98
2023-02-06T00:40:55.908Z,80.16
2023-02-06T00:43:22.453Z,80.05
2023-02-06T00:45:52.692Z,80.50
2023-02-06T00:48:19.298Z,78.58
2023-02-06T00:50:47.555Z,77.97
2023-02-06T00:53:13.992Z,77.07
2023-02-06T00:55:40.418Z,76.65
2023-02-06T00:58:07.043Z,77.01
2023-02-06T01:00:33.498Z,75.98
2023-02-06T01:03:00.032Z,76.72
2023-02-06T01:05:26.700Z,76.72
2023-02-06T01:07:53.167Z,75.86
2023-02-06T01:10:19.812Z,75.87
2023-02-06T01:12:46.270Z,76.53
2023-02-06T01:15:13.519Z,76.63
2023-02-06T01:17:40.489Z,75.59
2023-02-06T01:20:08.401Z,74.72
2023-02-06T01:22:35.196Z,75.20
2023-02-06T01:25:01.769Z,75.71
2023-02-06T01:27:28.299Z,76.33
2023-02-06T01:29:54.912Z,76.61
2023-02-06T01:32:21.481Z,77.06
2023-02-06T01:34:47.908Z,77.21
2023-02-06T01:37:14.368Z,77.63
2023-02-06T01:39:40.788Z,77.05
2023-02-06T01:42:07.232Z,77.34
2023-02-06T01:44:34.084Z,77.40
2023-02-06T01:47:00.546Z,77.71
2023-02-06T01:49:39.524Z,76.17
2023-02-06T01:52:15.594Z,76.32
2023-02-06T01:54:43.391Z,76.78
2023-02-06T01:57:11.167Z,75.31
2023-02-06T01:59:38.097Z,76.02
2023-02-06T02:02:04.605Z,76.15
2023-02-06T02:04:32.601Z,76.07
2023-02-06T02:07:04.789Z,75.28
2023-02-06T02:09:31.628Z,75.62
2023-02-06T02:11:58.063Z,75.82
2023-02-06T02:14:24.559Z,75.65
2023-02-06T02:16:53.798Z,76.08
2023-02-06T02:19:46.445Z,76.15
2023-02-06T02:22:12.854Z,76.27
2023-02-06T02:24:48.465Z,76.62
2023-02-06T02:27:17.910Z,76.22
2023-02-06T02:30:03.172Z,76.51
2023-02-06T02:32:29.559Z,76.61
2023-02-06T02:35:11.989Z,76.49
2023-02-06T02:37:58.644Z,76.18
2023-02-06T02:40:28.665Z,76.16
2023-02-06T02:42:57.857Z,76.04
2023-02-06T02:45:29.098Z,76.01
2023-02-06T02:48:03.371Z,76.48
2023-02-06T02:50:29.906Z,76.17
2023-02-06T02:52:57.912Z,76.86
2023-02-06T02:55:24.557Z,76.84
2023-02-06T02:57:54.009Z,76.61
2023-02-06T03:00:21.409Z,75.91
2023-02-06T03:02:49.197Z,76.04
2023-02-06T03:05:20.175Z,76.84
2023-02-06T03:07:53.263Z,77.21
2023-02-06T03:10:31.819Z,77.16
2023-02-06T03:13:10.545Z,77.70
2023-02-06T03:15:43.194Z,77.76
2023-02-06T03:18:11.891Z,77.83
2023-02-06T03:20:41.867Z,78.25
2023-02-06T03:23:08.435Z,78.32
2023-02-06T03:25:41.623Z,78.27
2023-02-06T03:28:13.876Z,78.19
2023-02-06T03:30:42.389Z,78.01
2023-02-06T03:33:10.895Z,77.74
2023-02-06T03:35:38.572Z,77.52
2023-02-06T03:38:06.887Z,77.77
2023-02-06T03:40:34.141Z,78.38
2023-02-06T03:43:02.881Z,79.07
2023-02-06T03:45:41.778Z,79.29
2023-02-06T03:48:11.668Z,79.44
2023-02-06T03:50:41.453Z,79.24
2023-02-06T03:53:09.780Z,78.35
2023-02-06T03:55:38.533Z,78.43
2023-02-06T03:58:09.534Z,78.45
2023-02-06T04:00:37.838Z,78.59
2023-02-06T04:03:04.792Z,78.56
2023-02-06T04:05:31.233Z,78.54
2023-02-06T04:07:57.753Z,78.91
2023-02-06T04:10:26.184Z,79.05
2023-02-06T04:12:53.233Z,78.90
2023-02-06T04:15:19.659Z,79.25
2023-02-06T04:17:58.905Z,78.98
2023-02-06T04:20:26.919Z,79.37
2023-02-06T04:22:53.451Z,79.44
2023-02-06T04:25:19.948Z,79.12
2023-02-06T04:27:46.417Z,78.71
2023-02-06T04:30:13.167Z,78.92
2023-02-06T04:32:39.597Z,79.50
2023-02-06T04:35:06.267Z,79.75
2023-02-06T04:37:33.035Z,79.96
2023-02-06T04:39:59.462Z,80.04
2023-02-06T04:42:25.887Z,79.81
2023-02-06T04:44:52.374Z,79.82
2023-02-06T04:47:18.812Z,80.30
2023-02-06T04:49:45.281Z,80.01
2023-02-06T04:52:11.725Z,79.82
2023-02-06T04:54:38.189Z,79.53
2023-02-06T04:57:04.911Z,80.13
2023-02-06T04:59:31.312Z,79.63
2023-02-06T05:01:57.740Z,79.29
2023-02-06T05:04:24.170Z,79.11
2023-02-06T05:06:50.600Z,79.51
2023-02-06T05:09:17.025Z,80.22
2023-02-06T05:11:43.447Z,80.29
2023-02-06T05:14:09.860Z,80.98
2023-02-06T05:16:36.303Z,80.23
2023-02-06T05:19:02.724Z,80.62
2023-02-06T05:21:29.212Z,80.63
2023-02-06T05:23:55.729Z,80.52
2023-02-06T05:26:22.494Z,80.30
2023-02-06T05:28:48.937Z,80.48
2023-02-06T05:31:19.732Z,80.16
2023-02-06T05:33:47.484Z,80.22
2023-02-06T05:36:14.100Z,80.28
2023-02-06T05:38:40.714Z,80.89
2023-02-06T05:41:07.164Z,80.89
2023-02-06T05:43:33.803Z,81.17
2023-02-06T05:46:00.285Z,80.83
2023-02-06T05:48:30.484Z,80.47
2023-02-06T05:50:58.300Z,80.32
2023-02-06T05:53:24.779Z,80.65
2023-02-06T05:55:51.262Z,80.23
2023-02-06T05:58:17.760Z,80.72
2023-02-06T06:00:44.349Z,80.44
2023-02-06T06:03:10.820Z,80.75
2023-02-06T06:05:37.492Z,80.17
2023-02-06T06:08:04.210Z,80.53
2023-02-06T06:10:30.626Z,81.83
2023-02-06T06:12:57.181Z,81.87
2023-02-06T06:15:23.628Z,81.29
2023-02-06T06:17:50.333Z,81.28
2023-02-06T06:20:16.821Z,81.24
2023-02-06T06:22:43.267Z,81.53
2023-02-06T06:25:09.808Z,81.35
2023-02-06T06:27:36.324Z,81.56
2023-02-06T06:30:03.091Z,81.66
2023-02-06T06:32:29.567Z,81.66
2023-02-06T06:34:56.002Z,81.66
2023-02-06T06:37:22.457Z,81.49
2023-02-06T06:39:48.881Z,81.87
2023-02-06T06:42:15.344Z,81.76
2023-02-06T06:44:41.776Z,81.33
2023-02-06T06:47:08.250Z,81.26
2023-02-06T06:49:34.746Z,81.59
2023-02-06T06:52:01.174Z,82.22
2023-02-06T06:54:27.861Z,82.05
2023-02-06T06:56:54.346Z,82.22
2023-02-06T06:59:20.766Z,81.66
2023-02-06T07:01:49.096Z,82.05
2023-02-06T07:04:15.553Z,82.20
2023-02-06T07:06:41.978Z,82.65
2023-02-06T07:09:08.380Z,82.71
2023-02-06T07:11:34.818Z,82.69
2023-02-06T07:14:02.362Z,82.89
2023-02-06T07:16:29.043Z,83.43
2023-02-06T07:18:55.605Z,83.51
2023-02-06T07:21:22.196Z,83.78
2023-02-06T07:23:48.684Z,83.67
2023-02-06T07:26:15.115Z,83.26
2023-02-06T07:28:42.275Z,83.33
2023-02-06T07:31:08.837Z,83.37
2023-02-06T07:33:35.367Z,83.06
2023-02-06T07:36:03.978Z,83.07
2023-02-06T07:38:30.748Z,83.72
2023-02-06T07:41:00.792Z,83.44
2023-02-06T07:43:27.221Z,83.00
2023-02-06T07:45:53.685Z,83.23
2023-02-06T07:48:20.142Z,83.43
2023-02-06T07:50:47.220Z,83.36
2023-02-06T07:53:13.681Z,83.72
2023-02-06T07:55:40.097Z,83.49
2023-02-06T07:58:06.692Z,83.78
2023-02-06T08:00:33.184Z,84.36
2023-02-06T08:02:59.674Z,84.33
2023-02-06T08:05:26.155Z,84.62
2023-02-06T08:07:52.753Z,84.35
2023-02-06T08:10:19.217Z,83.83
2023-02-06T08:12:45.711Z,84.08
2023-02-06T08:15:12.215Z,83.73
2023-02-06T08:17:38.634Z,83.56
2023-02-06T08:20:05.261Z,83.01
2023-02-06T08:22:31.926Z,82.61
2023-02-06T08:24:58.356Z,82.46
2023-02-06T08:27:24.849Z,82.19
2023-02-06T08:29:51.834Z,82.05
2023-02-06T08:32:18.424Z,81.82
2023-02-06T08:34:44.910Z,82.05
2023-02-06T08:37:11.326Z,81.95
2023-02-06T08:39:38.546Z,81.53
2023-02-06T08:42:05.183Z,81.55
2023-02-06T08:44:31.863Z,81.77
2023-02-06T08:47:09.154Z,80.57
2023-02-06T08:49:36.394Z,80.50
2023-02-06T08:52:02.818Z,80.22
2023-02-06T08:54:29.327Z,80.85
2023-02-06T08:57:01.001Z,80.28
2023-02-06T08:59:29.413Z,79.50
2023-02-06T09:01:55.840Z,79.34
2023-02-06T09:04:22.504Z,78.49
2023-02-06T09:06:49.295Z,77.75
2023-02-06T09:09:16.386Z,78.07
2023-02-06T09:11:43.241Z,78.28
2023-02-06T09:14:13.058Z,76.19
2023-02-06T09:16:39.554Z,76.11
2023-02-06T09:19:06.540Z,74.24
2023-02-06T09:21:34.424Z,74.34
2023-02-06T09:24:02.622Z,74.53
2023-02-06T09:26:33.265Z,74.49
2023-02-06T09:29:00.933Z,74.33
2023-02-06T09:31:30.717Z,74.81
2023-02-06T09:33:58.054Z,74.26
2023-02-06T09:36:24.521Z,74.42
2023-02-06T09:38:53.496Z,74.48
2023-02-06T09:41:39.280Z,74.84
2023-02-06T09:44:08.705Z,74.38
2023-02-06T09:46:36.972Z,74.66
2023-02-06T09:49:09.170Z,75.06
2023-02-06T09:51:40.187Z,73.72
2023-02-06T09:54:18.772Z,74.34
2023-02-06T09:56:45.340Z,74.75
2023-02-06T09:59:20.910Z,75.09
2023-02-06T10:01:47.376Z,75.13
2023-02-06T10:04:26.167Z,75.03
2023-02-06T10:07:21.801Z,75.24
2023-02-06T10:09:58.487Z,75.03
2023-02-06T10:12:30.433Z,75.35
2023-02-06T10:15:07.324Z,75.51
2023-02-06T10:17:57.097Z,75.62
2023-02-06T10:20:26.595Z,75.60
2023-02-06T10:23:04.840Z,75.94
2023-02-06T10:25:33.260Z,75.81
2023-02-06T10:28:02.388Z,75.83
2023-02-06T10:30:36.444Z,76.73
2023-02-06T10:33:24.849Z,76.83
2023-02-06T10:35:59.980Z,77.08
2023-02-06T10:38:32.616Z,77.34
2023-02-06T10:41:04.508Z,77.65
2023-02-06T10:43:45.988Z,77.33
2023-02-06T10:46:12.403Z,76.75
2023-02-06T10:48:58.099Z,77.01
2023-02-06T10:51:38.808Z,77.52
2023-02-06T10:54:12.487Z,77.50
2023-02-06T10:56:44.469Z,77.09
2023-02-06T10:59:22.348Z,77.23
2023-02-06T11:01:50.595Z,77.27
2023-02-06T11:04:20.118Z,76.88
2023-02-06T11:06:46.990Z,76.77
2023-02-06T11:09:14.497Z,76.35
2023-02-06T11:11:45.305Z,76.61
2023-02-06T11:14:24.986Z,76.87
2023-02-06T11:16:51.710Z,77.30
2023-02-06T11:19:26.712Z,77.65
2023-02-06T11:21:53.416Z,77.82
2023-02-06T11:24:22.472Z,77.95
2023-02-06T11:26:54.691Z,77.92
2023-02-06T11:29:26.303Z,77.91
2023-02-06T11:31:58.601Z,78.29
2023-02-06T11:34:32.889Z,78.10
2023-02-06T11:37:03.730Z,77.82
2023-02-06T11:39:34.802Z,77.77
2023-02-06T11:42:03.260Z,77.16
2023-02-06T11:44:36.122Z,77.48
2023-02-06T11:47:21.474Z,77.54
2023-02-06T11:49:47.968Z,77.43
2023-02-06T11:52:40.794Z,77.56
2023-02-06T11:55:20.330Z,77.51
2023-02-06T11:58:00.678Z,77.75
2023-02-06T12:00:27.424Z,78.07
2023-02-06T12:02:55.085Z,77.66
2023-02-06T12:05:22.724Z,78.03
2023-02-06T12:07:57.738Z,78.80
2023-02-06T12:10:25.524Z,77.96
2023-02-06T12:12:54.153Z,77.48
2023-02-06T12:15:46.945Z,78.15
2023-02-06T12:18:24.125Z,77.48
2023-02-06T12:20:56.190Z,77.60
2023-02-06T12:23:28.562Z,77.10
2023-02-06T12:25:56.937Z,77.04
2023-02-06T12:28:32.400Z,77.29
2023-02-06T12:31:01.095Z,77.47
2023-02-06T12:33:35.233Z,77.19
2023-02-06T12:36:03.570Z,77.25
2023-02-06T12:38:29.959Z,77.30
2023-02-06T12:40:59.461Z,77.63
2023-02-06T12:43:27.372Z,78.10
2023-02-06T12:45:53.916Z,77.73
2023-02-06T12:48:26.361Z,78.10
2023-02-06T12:51:11.455Z,77.46
2023-02-06T12:53:45.027Z,77.54
2023-02-06T12:56:29.797Z,78.04
2023-02-06T12:59:02.595Z,78.01
2023-02-06T13:01:33.843Z,77.49
2023-02-06T13:04:04.482Z,78.49
2023-02-06T13:06:41.746Z,77.93
2023-02-06T13:09:08.580Z,77.74
2023-02-06T13:11:40.601Z,76.95
2023-02-06T13:14:27.705Z,77.41
2023-02-06T13:17:01.065Z,76.99
2023-02-06T13:19:27.501Z,77.58
2023-02-06T13:22:14.597Z,76.28
2023-02-06T13:24:42.680Z,77.30
2023-02-06T13:27:09.091Z,77.22
2023-02-06T13:29:42.823Z,77.63
2023-02-06T13:32:12.369Z,77.40
2023-02-06T13:34:42.741Z,77.36
2023-02-06T13:37:27.995Z,77.17
2023-02-06T13:40:13.328Z,76.44
2023-02-06T13:42:58.625Z,76.84
2023-02-06T13:45:30.950Z,76.66
2023-02-06T13:47:57.428Z,76.59
2023-02-06T13:50:23.924Z,76.59
2023-02-06T13:53:08.930Z,76.15
2023-02-06T13:55:42.567Z,76.64
2023-02-06T13:58:27.647Z,76.71
2023-02-06T14:00:54.602Z,76.85
2023-02-06T14:03:31.627Z,76.34
2023-02-06T14:06:10.363Z,76.59
2023-02-06T14:09:00.033Z,76.36
2023-02-06T14:11:26.518Z,75.44
2023-02-06T14:14:04.453Z,75.06
2023-02-06T14:16:43.049Z,75.63
2023-02-06T14:19:24.458Z,75.67
2023-02-06T14:21:56.976Z,75.77
2023-02-06T14:24:42.364Z,75.65
2023-02-06T14:27:11.589Z,76.07
2023-02-06T14:29:49.912Z,76.47
2023-02-06T14:32:35.173Z,76.23
2023-02-06T14:35:20.435Z,76.21
2023-02-06T14:37:47.346Z,75.83
2023-02-06T14:40:18.860Z,75.54
2023-02-06T14:42:45.502Z,76.34
2023-02-06T14:45:23.038Z,75.92
2023-02-06T14:47:50.243Z,75.96
2023-02-06T14:50:24.956Z,76.49
2023-02-06T14:53:03.463Z,76.38
2023-02-06T14:55:30.585Z,76.46
2023-02-06T14:57:57.011Z,76.36
2023-02-06T15:00:23.897Z,76.13
2023-02-06T15:03:03.019Z,76.12
2023-02-06T15:05:31.862Z,76.52
2023-02-06T15:07:59.185Z,76.63
2023-02-06T15:10:30.448Z,76.29
2023-02-06T15:12:57.394Z,76.42
2023-02-06T15:15:25.233Z,76.51
2023-02-06T15:18:00.810Z,76.45
2023-02-06T15:20:36.325Z,75.94
2023-02-06T15:23:16.560Z,76.33
2023-02-06T15:25:44.320Z,76.67
2023-02-06T15:28:16.371Z,76.58
2023-02-06T15:30:43.047Z,76.83
2023-02-06T15:33:10.465Z,76.42
2023-02-06T15:35:39.119Z,75.71
2023-02-06T15:38:07.374Z,75.46
2023-02-06T15:40:35.943Z,75.48
2023-02-06T15:43:03.039Z,75.48
2023-02-06T15:45:31.772Z,75.90
2023-02-06T15:47:58.798Z,75.97
2023-02-06T15:50:27.628Z,76.08
2023-02-06T15:52:54.522Z,76.21
2023-02-06T15:55:25.507Z,76.42
2023-02-06T15:57:52.294Z,75.66
2023-02-06T16:00:24.239Z,75.18
2023-02-06T16:02:51.538Z,75.59
2023-02-06T16:05:30.723Z,75.92
2023-02-06T16:07:59.751Z,75.82
2023-02-06T16:10:35.789Z,76.12
2023-02-06T16:13:08.541Z,75.99
2023-02-06T16:15:36.769Z,75.86
2023-02-06T16:18:21.873Z,76.35
2023-02-06T16:20:48.476Z,76.47
2023-02-06T16:23:18.934Z,76.43
2023-02-06T16:25:46.929Z,75.75
2023-02-06T16:28:24.817Z,75.85
2023-02-06T16:30:54.322Z,76.24
2023-02-06T16:33:28.627Z,76.32
2023-02-06T16:35:55.097Z,76.40
2023-02-06T16:38:21.532Z,76.05
2023-02-06T16:40:49.811Z,75.88
2023-02-06T16:43:16.290Z,76.17
2023-02-06T16:45:42.770Z,76.15
2023-02-06T16:48:13.358Z,76.37
2023-02-06T16:50:40.766Z,76.38
2023-02-06T16:53:11.051Z,76.26
2023-02-06T16:55:37.475Z,76.32
2023-02-06T16:58:04.022Z,76.39
2023-02-06T17:00:31.478Z,76.61
2023-02-06T17:02:58.571Z,77.23
2023-02-06T17:05:26.559Z,76.95
2023-02-06T17:07:53.418Z,76.58
2023-02-06T17:10:21.388Z,76.60
2023-02-06T17:12:48.585Z,76.46
2023-02-06T17:15:16.401Z,76.26
2023-02-06T17:17:43.243Z,76.74
2023-02-06T17:20:33.060Z,77.05
2023-02-06T17:22:59.700Z,77.22
2023-02-06T17:25:26.454Z,77.07
2023-02-06T17:27:53.572Z,77.08
2023-02-06T17:30:21.436Z,77.37
2023-02-06T17:32:48.018Z,77.19
2023-02-06T17:35:14.933Z,77.17
2023-02-06T17:37:41.502Z,77.60
2023-02-06T17:40:08.422Z,77.88
2023-02-06T17:42:34.915Z,78.34
2023-02-06T17:45:01.353Z,77.89
2023-02-06T17:47:27.854Z,78.06
2023-02-06T17:49:54.316Z,77.38
2023-02-06T17:52:20.855Z,77.63
2023-02-06T17:54:47.306Z,76.89
2023-02-06T17:57:13.736Z,77.25
2023-02-06T17:59:40.320Z,77.06
2023-02-06T18:02:06.814Z,77.34
2023-02-06T18:04:33.278Z,76.68
2023-02-06T18:06:59.741Z,76.46
2023-02-06T18:09:26.174Z,76.08
2023-02-06T18:11:52.621Z,75.72
2023-02-06T18:14:19.074Z,75.70
2023-02-06T18:16:47.090Z,75.91
2023-02-06T18:19:13.754Z,75.92
2023-02-06T18:21:40.184Z,74.83
2023-02-06T18:24:07.081Z,75.06
2023-02-06T18:26:33.584Z,75.37
2023-02-06T18:29:03.092Z,75.32
2023-02-06T18:31:31.242Z,74.99
2023-02-06T18:33:57.765Z,74.84
2023-02-06T18:36:24.284Z,75.20
2023-02-06T18:38:50.857Z,74.00
2023-02-06T18:41:35.937Z,74.02
2023-02-06T18:44:07.846Z,74.11
2023-02-06T18:46:34.702Z,73.71
2023-02-06T18:49:01.382Z,74.36
2023-02-06T18:51:29.104Z,74.33
2023-02-06T18:53:55.532Z,73.36
2023-02-06T18:56:22.042Z,72.94
2023-02-06T18:58:48.471Z,73.52
2023-02-06T19:01:24.280Z,73.16
2023-02-06T19:03:52.143Z,73.16
2023-02-06T19:06:29.836Z,73.40
2023-02-06T19:08:56.936Z,73.30
2023-02-06T19:11:23.442Z,73.15
2023-02-06T19:13:49.931Z,73.24
2023-02-06T19:16:18.877Z,73.18
2023-02-06T19:18:46.468Z,73.36
2023-02-06T19:21:17.209Z,72.55
2023-02-06T19:23:44.659Z,72.86
2023-02-06T19:26:12.561Z,72.50
2023-02-06T19:28:39.890Z,72.52
2023-02-06T19:31:06.902Z,72.52
2023-02-06T19:33:34.593Z,72.30
2023-02-06T19:36:08.044Z,71.95
2023-02-06T19:38:34.795Z,72.02
2023-02-06T19:41:05.141Z,71.96
2023-02-06T19:43:31.596Z,72.38
2023-02-06T19:46:01.518Z,71.84
2023-02-06T19:48:27.953Z,71.89
2023-02-06T19:50:54.396Z,71.75
2023-02-06T19:53:20.864Z,72.12
2023-02-06T19:55:48.473Z,72.16
2023-02-06T19:58:14.913Z,71.89
2023-02-06T20:00:41.355Z,71.60
2023-02-06T20:03:07.870Z,71.58
2023-02-06T20:05:34.370Z,71.36
2023-02-06T20:08:00.846Z,71.00
2023-02-06T20:10:27.306Z,71.31
2023-02-06T20:12:54.879Z,71.50
2023-02-06T20:15:21.303Z,71.02
2023-02-06T20:17:50.326Z,70.98
2023-02-06T20:20:16.819Z,71.12
2023-02-06T20:22:43.295Z,70.52
2023-02-06T20:25:09.783Z,71.00
2023-02-06T20:27:36.479Z,70.84
2023-02-06T20:30:03.489Z,70.97
2023-02-06T20:32:29.914Z,70.76
2023-02-06T20:34:57.205Z,70.88
2023-02-06T20:37:23.656Z,70.38
2023-02-06T20:39:50.120Z,70.19
2023-02-06T20:42:16.895Z,70.70
2023-02-06T20:44:43.320Z,70.30
2023-02-06T20:47:09.795Z,71.11
2023-02-06T20:49:36.293Z,71.00
2023-02-06T20:52:03.404Z,71.29
2023-02-06T20:54:30.930Z,71.02
2023-02-06T20:56:57.521Z,71.43
2023-02-06T20:59:23.993Z,70.85
2023-02-06T21:01:50.447Z,71.02
2023-02-06T21:04:17.404Z,70.29
2023-02-06T21:06:44.055Z,70.43
2023-02-06T21:09:10.988Z,70.83
2023-02-06T21:11:42.545Z,69.93
2023-02-06T21:14:09.036Z,70.07
2023-02-06T21:16:37.586Z,70.08
2023-02-06T21:19:05.760Z,70.48
2023-02-06T21:21:32.390Z,70.05
2023-02-06T21:23:58.968Z,71.04
2023-02-06T21:26:26.142Z,70.28
2023-02-06T21:28:52.617Z,70.26
2023-02-06T21:31:21.041Z,70.23
2023-02-06T21:33:48.420Z,69.83
2023-02-06T21:36:15.215Z,70.38
2023-02-06T21:38:42.142Z,69.77
2023-02-06T21:41:10.387Z,68.84
2023-02-06T21:43:36.864Z,69.75
2023-02-06T21:46:03.638Z,69.75
2023-02-06T21:48:30.231Z,70.21
2023-02-06T21:50:57.037Z,69.77
2023-02-06T21:53:23.575Z,69.96
2023-02-06T21:55:49.998Z,69.56
2023-02-06T21:58:16.778Z,70.08
2023-02-06T22:00:44.593Z,70.25
2023-02-06T22:03:11.462Z,69.92
2023-02-06T22:05:38.571Z,69.11
2023-02-06T22:08:05.689Z,70.31
2023-02-06T22:10:32.179Z,70.32
2023-02-06T22:12:58.611Z,70.09
2023-02-06T22:15:25.063Z,70.15
2023-02-06T22:17:51.556Z,70.35
2023-02-06T22:20:18.042Z,70.50
2023-02-06T22:22:44.452Z,70.25
2023-02-06T22:25:11.807Z,70.14
2023-02-06T22:27:38.355Z,71.46
2023-02-06T22:30:05.742Z,70.80
2023-02-06T22:32:32.244Z,71.53
2023-02-06T22:34:59.474Z,71.09
2023-02-06T22:37:26.128Z,70.72
2023-02-06T22:39:55.901Z,71.81
2023-02-06T22:42:22.833Z,71.50
2023-02-06T22:44:49.404Z,71.80
2023-02-06T22:47:15.837Z,72.10
2023-02-06T22:49:42.498Z,71.59
2023-02-06T22:52:28.901Z,72.51
2023-02-06T22:54:55.562Z,72.11
2023-02-06T22:57:22.049Z,71.54
2023-02-06T22:59:48.701Z,72.53
2023-02-06T23:02:15.233Z,71.90
2023-02-06T23:04:41.737Z,72.07
2023-02-06T23:07:08.153Z,73.08
2023-02-06T23:09:35.761Z,72.71
2023-02-06T23:12:02.931Z,73.95
2023-02-06T23:14:30.425Z,74.29
2023-02-06T23:16:57.575Z,73.67
2023-02-06T23:19:24.406Z,73.86
2023-02-06T23:21:51.412Z,73.64
2023-02-06T23:24:18.507Z,73.25
2023-02-06T23:26:46.257Z,72.83
2023-02-06T23:29:17.265Z,73.00
2023-02-06T23:31:44.151Z,73.10
2023-02-06T23:34:10.795Z,73.24
2023-02-06T23:36:37.349Z,74.21
2023-02-06T23:39:04.252Z,73.78
2023-02-06T23:41:30.982Z,73.77
2023-02-06T23:43:58.855Z,73.17
2023-02-06T23:46:26.422Z,75.02
2023-02-06T23:48:53.176Z,75.27
2023-02-06T23:51:20.569Z,74.93
2023-02-06T23:53:47.226Z,74.74
2023-02-06T23:56:16.051Z,75.30
2023-02-06T23:58:42.691Z,75.03
